CheckWX is a tool to help pilots better visualize weather data.  It is not intended as a substitute for an official pre-flight weather briefing.

08:53:14 UTC

KDIJ METAR
Driggs-Reed Memorial Airport
Driggs, Idaho, USA
Current

25 mins ago

KDIJ 220828Z AUTO 28003KT 10SM BKN012 OVC060 04/03 A2963 RMK AO2
Observed
May-22 @ 08:28 UTC
Wind
  • 280° at 3 KTS
Visibility
10 SM
Flight Rules
MVFR
Cloud Levels
  • Broken at 1,200' AGL
  • Overcast at 6,000' AGL
Temperature
C / 39°F
Dewpoint
C / 37°F
Humidity
93%
Altimeter
29.63" Hg
Pressure
1003.42 hPa
Previous

57 mins ago

KDIJ 220756Z AUTO 00000KT 10SM SCT012 OVC060 04/03 A2963 RMK AO2 SLP018 T00390033
Observed
May-22 @ 07:56 UTC
Visibility
10 SM
Flight Rules
VFR
Cloud Levels
  • Scattered at 1,200' AGL
  • Overcast at 6,000' AGL
Temperature
C / 39°F
Dewpoint
C / 37°F
Humidity
93%
Altimeter
29.63" Hg
Pressure
1003.42 hPa
Previous

1 hour ago

KDIJ 220740Z AUTO 02003KT 10SM SCT007 OVC065 04/03 A2963 RMK AO2
Observed
May-22 @ 07:40 UTC
Wind
  • 020° at 3 KTS
Visibility
10 SM
Flight Rules
VFR
Cloud Levels
  • Scattered at 700' AGL
  • Overcast at 6,500' AGL
Temperature
C / 39°F
Dewpoint
C / 37°F
Humidity
93%
Altimeter
29.63" Hg
Pressure
1003.42 hPa